sensor_id;sensor_type;location;lat;lon;timestamp;temperature;humidity
48836;DHT22;62581;47.342;7.908;2022-08-21T00:00:39;19.30;99.90
48836;DHT22;62581;47.342;7.908;2022-08-21T00:03:06;19.30;99.90
48836;DHT22;62581;47.342;7.908;2022-08-21T00:05:36;19.30;99.90
48836;DHT22;62581;47.342;7.908;2022-08-21T00:08:03;19.20;99.90
48836;DHT22;62581;47.342;7.908;2022-08-21T00:10:32;19.20;99.90
48836;DHT22;62581;47.342;7.908;2022-08-21T00:12:59;19.20;99.90
48836;DHT22;62581;47.342;7.908;2022-08-21T00:15:28;19.20;99.90
48836;DHT22;62581;47.342;7.908;2022-08-21T00:17:55;19.20;99.90
48836;DHT22;62581;47.342;7.908;2022-08-21T00:20:22;19.20;99.90
48836;DHT22;62581;47.342;7.908;2022-08-21T00:22:49;19.10;99.90
48836;DHT22;62581;47.342;7.908;2022-08-21T00:25:17;19.20;99.90
48836;DHT22;62581;47.342;7.908;2022-08-21T00:27:45;19.10;99.90
48836;DHT22;62581;47.342;7.908;2022-08-21T00:30:13;19.10;99.90
48836;DHT22;62581;47.342;7.908;2022-08-21T00:32:41;19.20;99.90
48836;DHT22;62581;47.342;7.908;2022-08-21T00:35:09;19.10;99.90
48836;DHT22;62581;47.342;7.908;2022-08-21T00:37:37;19.10;99.90
48836;DHT22;62581;47.342;7.908;2022-08-21T00:40:04;19.20;99.90
48836;DHT22;62581;47.342;7.908;2022-08-21T00:42:31;19.20;99.90
48836;DHT22;62581;47.342;7.908;2022-08-21T00:44:59;19.30;99.90
48836;DHT22;62581;47.342;7.908;2022-08-21T00:47:26;19.30;99.90
48836;DHT22;62581;47.342;7.908;2022-08-21T00:49:53;19.30;99.90
48836;DHT22;62581;47.342;7.908;2022-08-21T00:52:20;19.30;99.90
48836;DHT22;62581;47.342;7.908;2022-08-21T00:54:48;19.30;99.90
48836;DHT22;62581;47.342;7.908;2022-08-21T00:57:16;19.40;99.90
48836;DHT22;62581;47.342;7.908;2022-08-21T00:59:44;19.40;99.90
48836;DHT22;62581;47.342;7.908;2022-08-21T01:02:13;19.40;99.90
48836;DHT22;62581;47.342;7.908;2022-08-21T01:04:40;19.30;99.90
48836;DHT22;62581;47.342;7.908;2022-08-21T01:07:07;19.30;99.90
48836;DHT22;62581;47.342;7.908;2022-08-21T01:09:34;19.30;99.90
48836;DHT22;62581;47.342;7.908;2022-08-21T01:12:01;19.30;99.90
48836;DHT22;62581;47.342;7.908;2022-08-21T01:14:28;19.30;99.90
48836;DHT22;62581;47.342;7.908;2022-08-21T01:16:55;19.20;99.90
48836;DHT22;62581;47.342;7.908;2022-08-21T01:19:25;19.10;99.90
48836;DHT22;62581;47.342;7.908;2022-08-21T01:21:53;19.10;99.90
48836;DHT22;62581;47.342;7.908;2022-08-21T01:24:20;19.10;99.90
48836;DHT22;62581;47.342;7.908;2022-08-21T01:26:47;19.10;99.90
48836;DHT22;62581;47.342;7.908;2022-08-21T01:29:15;19.10;99.90
48836;DHT22;62581;47.342;7.908;2022-08-21T01:31:43;19.00;99.90
48836;DHT22;62581;47.342;7.908;2022-08-21T01:34:10;19.00;99.90
48836;DHT22;62581;47.342;7.908;2022-08-21T01:36:37;19.10;99.90
48836;DHT22;62581;47.342;7.908;2022-08-21T01:39:05;19.10;99.90
48836;DHT22;62581;47.342;7.908;2022-08-21T01:41:32;19.10;99.90
48836;DHT22;62581;47.342;7.908;2022-08-21T01:43:59;19.10;99.90
48836;DHT22;62581;47.342;7.908;2022-08-21T01:46:26;19.20;99.90
48836;DHT22;62581;47.342;7.908;2022-08-21T01:48:53;19.20;99.90
48836;DHT22;62581;47.342;7.908;2022-08-21T01:51:20;19.10;99.90
48836;DHT22;62581;47.342;7.908;2022-08-21T01:53:47;19.20;99.90
48836;DHT22;62581;47.342;7.908;2022-08-21T01:56:15;19.20;99.90
48836;DHT22;62581;47.342;7.908;2022-08-21T01:58:43;19.20;99.90
48836;DHT22;62581;47.342;7.908;2022-08-21T02:01:10;19.20;99.90
48836;DHT22;62581;47.342;7.908;2022-08-21T02:03:36;19.20;99.90
48836;DHT22;62581;47.342;7.908;2022-08-21T02:06:04;19.20;99.90
48836;DHT22;62581;47.342;7.908;2022-08-21T02:08:32;19.10;99.90
48836;DHT22;62581;47.342;7.908;2022-08-21T02:10:59;19.10;99.90
48836;DHT22;62581;47.342;7.908;2022-08-21T02:13:27;19.10;99.90
48836;DHT22;62581;47.342;7.908;2022-08-21T02:15:54;19.10;99.90
48836;DHT22;62581;47.342;7.908;2022-08-21T02:18:21;19.10;99.90
48836;DHT22;62581;47.342;7.908;2022-08-21T02:20:48;19.20;99.90
48836;DHT22;62581;47.342;7.908;2022-08-21T02:23:15;19.20;99.90
48836;DHT22;62581;47.342;7.908;2022-08-21T02:25:42;19.20;99.90
48836;DHT22;62581;47.342;7.908;2022-08-21T02:28:09;19.20;99.90
48836;DHT22;62581;47.342;7.908;2022-08-21T02:30:39;19.10;99.90
48836;DHT22;62581;47.342;7.908;2022-08-21T02:33:06;19.10;99.90
48836;DHT22;62581;47.342;7.908;2022-08-21T02:35:34;19.10;99.90
48836;DHT22;62581;47.342;7.908;2022-08-21T02:38:03;19.00;99.90
48836;DHT22;62581;47.342;7.908;2022-08-21T02:40:31;19.00;99.90
48836;DHT22;62581;47.342;7.908;2022-08-21T02:42:59;19.00;99.90
48836;DHT22;62581;47.342;7.908;2022-08-21T02:45:26;19.00;99.90
48836;DHT22;62581;47.342;7.908;2022-08-21T02:47:55;18.90;99.90
48836;DHT22;62581;47.342;7.908;2022-08-21T02:50:24;19.00;99.90
48836;DHT22;62581;47.342;7.908;2022-08-21T02:52:51;19.00;99.90
48836;DHT22;62581;47.342;7.908;2022-08-21T02:55:19;19.00;99.90
48836;DHT22;62581;47.342;7.908;2022-08-21T02:57:46;19.10;99.90
48836;DHT22;62581;47.342;7.908;2022-08-21T03:00:13;19.00;99.90
48836;DHT22;62581;47.342;7.908;2022-08-21T03:02:40;19.00;99.90
48836;DHT22;62581;47.342;7.908;2022-08-21T03:05:09;19.00;99.90
48836;DHT22;62581;47.342;7.908;2022-08-21T03:07:36;19.00;99.90
48836;DHT22;62581;47.342;7.908;2022-08-21T03:10:04;19.00;99.90
48836;DHT22;62581;47.342;7.908;2022-08-21T03:12:31;19.00;99.90
48836;DHT22;62581;47.342;7.908;2022-08-21T03:15:00;19.00;99.90
48836;DHT22;62581;47.342;7.908;2022-08-21T03:17:27;18.90;99.90
48836;DHT22;62581;47.342;7.908;2022-08-21T03:19:53;18.90;99.90
48836;DHT22;62581;47.342;7.908;2022-08-21T03:22:22;18.90;99.90
48836;DHT22;62581;47.342;7.908;2022-08-21T03:24:48;18.90;99.90
48836;DHT22;62581;47.342;7.908;2022-08-21T03:27:15;18.80;99.90
48836;DHT22;62581;47.342;7.908;2022-08-21T03:29:42;18.80;99.90
48836;DHT22;62581;47.342;7.908;2022-08-21T03:32:08;18.80;99.90
48836;DHT22;62581;47.342;7.908;2022-08-21T03:34:35;18.70;99.90
48836;DHT22;62581;47.342;7.908;2022-08-21T03:37:02;18.60;99.90
48836;DHT22;62581;47.342;7.908;2022-08-21T03:39:30;18.60;99.90
48836;DHT22;62581;47.342;7.908;2022-08-21T03:41:57;18.60;99.90
48836;DHT22;62581;47.342;7.908;2022-08-21T03:44:25;18.60;99.90
48836;DHT22;62581;47.342;7.908;2022-08-21T03:46:53;18.60;99.90
48836;DHT22;62581;47.342;7.908;2022-08-21T03:49:20;18.70;99.90
48836;DHT22;62581;47.342;7.908;2022-08-21T03:51:47;18.70;99.90
48836;DHT22;62581;47.342;7.908;2022-08-21T03:54:14;18.70;99.90
48836;DHT22;62581;47.342;7.908;2022-08-21T03:56:42;18.80;99.90
48836;DHT22;62581;47.342;7.908;2022-08-21T03:59:09;18.80;99.90
48836;DHT22;62581;47.342;7.908;2022-08-21T04:01:35;18.80;99.90
48836;DHT22;62581;47.342;7.908;2022-08-21T04:04:02;18.70;99.90
48836;DHT22;62581;47.342;7.908;2022-08-21T04:06:29;18.80;99.90
48836;DHT22;62581;47.342;7.908;2022-08-21T04:08:56;18.70;99.90
48836;DHT22;62581;47.342;7.908;2022-08-21T04:11:23;18.80;99.90
48836;DHT22;62581;47.342;7.908;2022-08-21T04:13:51;18.70;99.90
48836;DHT22;62581;47.342;7.908;2022-08-21T04:16:18;18.70;99.90
48836;DHT22;62581;47.342;7.908;2022-08-21T04:18:45;18.70;99.90
48836;DHT22;62581;47.342;7.908;2022-08-21T04:21:12;18.70;99.90
48836;DHT22;62581;47.342;7.908;2022-08-21T04:23:39;18.60;99.90
48836;DHT22;62581;47.342;7.908;2022-08-21T04:26:06;18.70;99.90
48836;DHT22;62581;47.342;7.908;2022-08-21T04:28:32;18.60;99.90
48836;DHT22;62581;47.342;7.908;2022-08-21T04:31:01;18.60;99.90
48836;DHT22;62581;47.342;7.908;2022-08-21T04:33:27;18.70;99.90
48836;DHT22;62581;47.342;7.908;2022-08-21T04:35:54;18.70;99.90
48836;DHT22;62581;47.342;7.908;2022-08-21T04:38:21;18.70;99.90
48836;DHT22;62581;47.342;7.908;2022-08-21T04:40:48;18.70;99.90
48836;DHT22;62581;47.342;7.908;2022-08-21T04:43:16;18.70;99.90
48836;DHT22;62581;47.342;7.908;2022-08-21T04:45:44;18.80;99.90
48836;DHT22;62581;47.342;7.908;2022-08-21T04:48:15;18.70;99.90
48836;DHT22;62581;47.342;7.908;2022-08-21T04:50:45;18.70;99.90
48836;DHT22;62581;47.342;7.908;2022-08-21T04:53:15;18.70;99.90
48836;DHT22;62581;47.342;7.908;2022-08-21T04:55:43;18.80;99.90
48836;DHT22;62581;47.342;7.908;2022-08-21T04:58:10;18.80;99.90
48836;DHT22;62581;47.342;7.908;2022-08-21T05:00:38;18.80;99.90
48836;DHT22;62581;47.342;7.908;2022-08-21T05:03:05;18.80;99.90
48836;DHT22;62581;47.342;7.908;2022-08-21T05:05:34;18.80;99.90
48836;DHT22;62581;47.342;7.908;2022-08-21T05:08:01;18.90;99.90
48836;DHT22;62581;47.342;7.908;2022-08-21T05:10:28;18.90;99.90
48836;DHT22;62581;47.342;7.908;2022-08-21T05:12:56;18.80;99.90
48836;DHT22;62581;47.342;7.908;2022-08-21T05:15:23;18.90;99.90
48836;DHT22;62581;47.342;7.908;2022-08-21T05:17:50;18.90;99.90
48836;DHT22;62581;47.342;7.908;2022-08-21T05:20:17;18.90;99.90
48836;DHT22;62581;47.342;7.908;2022-08-21T05:22:46;18.90;99.90
48836;DHT22;62581;47.342;7.908;2022-08-21T05:25:13;18.90;99.90
48836;DHT22;62581;47.342;7.908;2022-08-21T05:27:39;18.90;99.90
48836;DHT22;62581;47.342;7.908;2022-08-21T05:30:07;18.80;99.90
48836;DHT22;62581;47.342;7.908;2022-08-21T05:32:34;18.80;99.90
48836;DHT22;62581;47.342;7.908;2022-08-21T05:35:00;18.80;99.90
48836;DHT22;62581;47.342;7.908;2022-08-21T05:37:27;18.80;99.90
48836;DHT22;62581;47.342;7.908;2022-08-21T05:39:56;18.80;99.90
48836;DHT22;62581;47.342;7.908;2022-08-21T05:42:23;18.90;99.90
48836;DHT22;62581;47.342;7.908;2022-08-21T05:44:49;18.90;99.90
48836;DHT22;62581;47.342;7.908;2022-08-21T05:47:16;19.00;99.90
48836;DHT22;62581;47.342;7.908;2022-08-21T05:49:43;19.00;99.90
48836;DHT22;62581;47.342;7.908;2022-08-21T05:52:10;19.10;99.90
48836;DHT22;62581;47.342;7.908;2022-08-21T05:54:37;19.10;99.90
48836;DHT22;62581;47.342;7.908;2022-08-21T05:57:05;19.20;99.90
48836;DHT22;62581;47.342;7.908;2022-08-21T05:59:33;19.20;99.90
48836;DHT22;62581;47.342;7.908;2022-08-21T06:02:01;19.30;99.90
48836;DHT22;62581;47.342;7.908;2022-08-21T06:04:28;19.30;99.90
48836;DHT22;62581;47.342;7.908;2022-08-21T06:06:54;19.30;99.90
48836;DHT22;62581;47.342;7.908;2022-08-21T06:09:21;19.40;99.90
48836;DHT22;62581;47.342;7.908;2022-08-21T06:11:48;19.30;99.90
48836;DHT22;62581;47.342;7.908;2022-08-21T06:14:16;19.40;99.90
48836;DHT22;62581;47.342;7.908;2022-08-21T06:16:43;19.40;99.90
48836;DHT22;62581;47.342;7.908;2022-08-21T06:19:09;19.50;99.90
48836;DHT22;62581;47.342;7.908;2022-08-21T06:21:36;19.50;99.90
48836;DHT22;62581;47.342;7.908;2022-08-21T06:24:03;19.50;99.90
48836;DHT22;62581;47.342;7.908;2022-08-21T06:26:30;19.50;99.90
48836;DHT22;62581;47.342;7.908;2022-08-21T06:28:57;19.50;99.90
48836;DHT22;62581;47.342;7.908;2022-08-21T06:31:27;19.40;99.90
48836;DHT22;62581;47.342;7.908;2022-08-21T06:33:54;19.30;99.90
48836;DHT22;62581;47.342;7.908;2022-08-21T06:36:22;19.30;99.90
48836;DHT22;62581;47.342;7.908;2022-08-21T06:38:48;19.20;99.90
48836;DHT22;62581;47.342;7.908;2022-08-21T06:41:15;19.30;99.90
48836;DHT22;62581;47.342;7.908;2022-08-21T06:43:42;19.40;99.90
48836;DHT22;62581;47.342;7.908;2022-08-21T06:46:09;19.40;99.90
48836;DHT22;62581;47.342;7.908;2022-08-21T06:48:37;19.50;99.90
48836;DHT22;62581;47.342;7.908;2022-08-21T06:51:04;19.50;99.90
48836;DHT22;62581;47.342;7.908;2022-08-21T06:53:31;19.60;99.90
48836;DHT22;62581;47.342;7.908;2022-08-21T06:55:58;19.60;99.90
48836;DHT22;62581;47.342;7.908;2022-08-21T06:58:24;19.70;99.90
48836;DHT22;62581;47.342;7.908;2022-08-21T07:00:51;19.70;99.90
48836;DHT22;62581;47.342;7.908;2022-08-21T07:03:20;19.80;99.90
48836;DHT22;62581;47.342;7.908;2022-08-21T07:05:49;19.80;99.90
48836;DHT22;62581;47.342;7.908;2022-08-21T07:08:16;19.80;99.90
48836;DHT22;62581;47.342;7.908;2022-08-21T07:10:43;19.90;99.90
48836;DHT22;62581;47.342;7.908;2022-08-21T07:13:10;20.00;99.90
48836;DHT22;62581;47.342;7.908;2022-08-21T07:15:37;20.00;99.90
48836;DHT22;62581;47.342;7.908;2022-08-21T07:18:04;20.10;99.90
48836;DHT22;62581;47.342;7.908;2022-08-21T07:20:31;20.20;99.90
48836;DHT22;62581;47.342;7.908;2022-08-21T07:23:00;20.30;99.90
48836;DHT22;62581;47.342;7.908;2022-08-21T07:25:28;20.40;99.90
48836;DHT22;62581;47.342;7.908;2022-08-21T07:27:54;20.50;99.90
48836;DHT22;62581;47.342;7.908;2022-08-21T07:30:22;20.60;99.90
48836;DHT22;62581;47.342;7.908;2022-08-21T07:32:49;20.70;99.90
48836;DHT22;62581;47.342;7.908;2022-08-21T07:35:16;20.70;99.90
48836;DHT22;62581;47.342;7.908;2022-08-21T07:37:43;20.70;99.90
48836;DHT22;62581;47.342;7.908;2022-08-21T07:40:11;20.70;99.90
48836;DHT22;62581;47.342;7.908;2022-08-21T07:42:39;20.70;99.90
48836;DHT22;62581;47.342;7.908;2022-08-21T07:45:07;20.70;99.90
48836;DHT22;62581;47.342;7.908;2022-08-21T07:47:34;20.80;99.90
48836;DHT22;62581;47.342;7.908;2022-08-21T07:50:00;20.90;99.90
48836;DHT22;62581;47.342;7.908;2022-08-21T07:52:27;21.10;99.90
48836;DHT22;62581;47.342;7.908;2022-08-21T07:54:54;21.30;99.90
48836;DHT22;62581;47.342;7.908;2022-08-21T07:57:22;21.50;99.90
48836;DHT22;62581;47.342;7.908;2022-08-21T07:59:49;21.70;99.90
48836;DHT22;62581;47.342;7.908;2022-08-21T08:02:21;21.90;99.90
48836;DHT22;62581;47.342;7.908;2022-08-21T08:04:48;22.00;99.90
48836;DHT22;62581;47.342;7.908;2022-08-21T08:07:15;22.20;99.90
48836;DHT22;62581;47.342;7.908;2022-08-21T08:09:43;22.20;99.90
48836;DHT22;62581;47.342;7.908;2022-08-21T08:12:09;22.30;99.90
48836;DHT22;62581;47.342;7.908;2022-08-21T08:14:38;22.30;99.90
48836;DHT22;62581;47.342;7.908;2022-08-21T08:17:04;22.40;99.90
48836;DHT22;62581;47.342;7.908;2022-08-21T08:19:31;22.40;99.90
48836;DHT22;62581;47.342;7.908;2022-08-21T08:21:58;22.40;99.90
48836;DHT22;62581;47.342;7.908;2022-08-21T08:24:25;22.40;99.90
48836;DHT22;62581;47.342;7.908;2022-08-21T08:26:52;22.40;99.90
48836;DHT22;62581;47.342;7.908;2022-08-21T08:29:19;22.50;99.90
48836;DHT22;62581;47.342;7.908;2022-08-21T08:31:47;22.50;99.90
48836;DHT22;62581;47.342;7.908;2022-08-21T08:34:14;22.60;99.90
48836;DHT22;62581;47.342;7.908;2022-08-21T08:36:41;22.60;99.90
48836;DHT22;62581;47.342;7.908;2022-08-21T08:39:07;22.70;99.90
48836;DHT22;62581;47.342;7.908;2022-08-21T08:41:34;22.70;99.90
48836;DHT22;62581;47.342;7.908;2022-08-21T08:44:03;22.80;99.90
48836;DHT22;62581;47.342;7.908;2022-08-21T08:46:32;23.00;99.90
48836;DHT22;62581;47.342;7.908;2022-08-21T08:49:02;23.20;99.90
48836;DHT22;62581;47.342;7.908;2022-08-21T08:51:34;23.40;99.90
48836;DHT22;62581;47.342;7.908;2022-08-21T08:54:06;23.70;99.90
48836;DHT22;62581;47.342;7.908;2022-08-21T08:56:34;24.00;99.90
48836;DHT22;62581;47.342;7.908;2022-08-21T08:59:02;24.20;99.90
48836;DHT22;62581;47.342;7.908;2022-08-21T09:01:33;24.50;99.90
48836;DHT22;62581;47.342;7.908;2022-08-21T09:04:02;24.60;99.90
48836;DHT22;62581;47.342;7.908;2022-08-21T09:09:25;24.70;99.90
48836;DHT22;62581;47.342;7.908;2022-08-21T09:11:58;24.70;99.90
48836;DHT22;62581;47.342;7.908;2022-08-21T09:14:26;24.80;99.90
48836;DHT22;62581;47.342;7.908;2022-08-21T09:16:58;24.90;99.90
48836;DHT22;62581;47.342;7.908;2022-08-21T09:19:42;25.20;99.90
48836;DHT22;62581;47.342;7.908;2022-08-21T09:22:14;25.30;99.90
48836;DHT22;62581;47.342;7.908;2022-08-21T09:24:45;25.30;99.90
48836;DHT22;62581;47.342;7.908;2022-08-21T09:27:16;25.20;99.90
48836;DHT22;62581;47.342;7.908;2022-08-21T09:29:44;25.10;99.90
48836;DHT22;62581;47.342;7.908;2022-08-21T09:32:15;25.00;99.90
48836;DHT22;62581;47.342;7.908;2022-08-21T09:34:53;24.90;99.90
48836;DHT22;62581;47.342;7.908;2022-08-21T09:37:20;24.80;99.90
48836;DHT22;62581;47.342;7.908;2022-08-21T09:39:47;24.90;99.90
48836;DHT22;62581;47.342;7.908;2022-08-21T09:42:21;24.90;99.90
48836;DHT22;62581;47.342;7.908;2022-08-21T09:44:48;24.90;99.90
48836;DHT22;62581;47.342;7.908;2022-08-21T09:47:18;24.70;99.90
48836;DHT22;62581;47.342;7.908;2022-08-21T09:49:47;24.50;99.90
48836;DHT22;62581;47.342;7.908;2022-08-21T09:52:16;24.40;99.90
48836;DHT22;62581;47.342;7.908;2022-08-21T09:54:43;24.20;99.90
48836;DHT22;62581;47.342;7.908;2022-08-21T09:57:12;24.10;99.90
48836;DHT22;62581;47.342;7.908;2022-08-21T10:00:06;24.00;99.90
48836;DHT22;62581;47.342;7.908;2022-08-21T10:02:34;24.00;99.90
48836;DHT22;62581;47.342;7.908;2022-08-21T10:05:03;23.90;99.90
48836;DHT22;62581;47.342;7.908;2022-08-21T10:07:36;24.00;99.90
48836;DHT22;62581;47.342;7.908;2022-08-21T10:10:05;24.00;99.90
48836;DHT22;62581;47.342;7.908;2022-08-21T10:12:38;24.10;99.90
48836;DHT22;62581;47.342;7.908;2022-08-21T10:15:09;24.10;99.90
48836;DHT22;62581;47.342;7.908;2022-08-21T10:17:44;24.00;99.90
48836;DHT22;62581;47.342;7.908;2022-08-21T10:20:14;24.00;99.90
48836;DHT22;62581;47.342;7.908;2022-08-21T10:22:45;24.00;99.90
48836;DHT22;62581;47.342;7.908;2022-08-21T10:25:14;23.90;99.90
48836;DHT22;62581;47.342;7.908;2022-08-21T10:27:44;23.90;99.90
48836;DHT22;62581;47.342;7.908;2022-08-21T10:30:13;23.90;99.90
48836;DHT22;62581;47.342;7.908;2022-08-21T10:32:50;24.00;99.90
48836;DHT22;62581;47.342;7.908;2022-08-21T10:35:26;24.00;99.90
48836;DHT22;62581;47.342;7.908;2022-08-21T10:37:59;24.00;99.90
48836;DHT22;62581;47.342;7.908;2022-08-21T10:40:30;24.00;99.90
48836;DHT22;62581;47.342;7.908;2022-08-21T10:43:03;24.10;99.90
48836;DHT22;62581;47.342;7.908;2022-08-21T10:45:37;24.10;99.90
48836;DHT22;62581;47.342;7.908;2022-08-21T10:48:06;24.20;99.90
48836;DHT22;62581;47.342;7.908;2022-08-21T10:50:37;24.20;99.90
48836;DHT22;62581;47.342;7.908;2022-08-21T10:53:11;24.30;99.90
48836;DHT22;62581;47.342;7.908;2022-08-21T10:55:43;24.30;99.90
48836;DHT22;62581;47.342;7.908;2022-08-21T10:58:11;24.50;99.90
48836;DHT22;62581;47.342;7.908;2022-08-21T11:00:40;24.50;99.90
48836;DHT22;62581;47.342;7.908;2022-08-21T11:03:10;24.60;99.90
48836;DHT22;62581;47.342;7.908;2022-08-21T11:05:40;24.70;99.90
48836;DHT22;62581;47.342;7.908;2022-08-21T11:08:09;24.70;99.90
48836;DHT22;62581;47.342;7.908;2022-08-21T11:10:38;24.70;99.90
48836;DHT22;62581;47.342;7.908;2022-08-21T11:13:08;24.90;99.90
48836;DHT22;62581;47.342;7.908;2022-08-21T11:15:39;24.90;99.90
48836;DHT22;62581;47.342;7.908;2022-08-21T11:18:15;25.00;99.90
48836;DHT22;62581;47.342;7.908;2022-08-21T11:20:46;25.10;99.90
48836;DHT22;62581;47.342;7.908;2022-08-21T11:23:21;25.10;99.90
48836;DHT22;62581;47.342;7.908;2022-08-21T11:25:51;25.20;99.90
48836;DHT22;62581;47.342;7.908;2022-08-21T11:28:21;25.20;99.90
48836;DHT22;62581;47.342;7.908;2022-08-21T11:30:52;25.10;99.90
48836;DHT22;62581;47.342;7.908;2022-08-21T11:33:26;25.10;99.90
48836;DHT22;62581;47.342;7.908;2022-08-21T11:35:58;25.30;99.90
48836;DHT22;62581;47.342;7.908;2022-08-21T11:38:32;25.30;99.90
48836;DHT22;62581;47.342;7.908;2022-08-21T11:41:14;25.20;99.90
48836;DHT22;62581;47.342;7.908;2022-08-21T11:43:44;25.10;99.90
48836;DHT22;62581;47.342;7.908;2022-08-21T11:46:16;24.90;99.90
48836;DHT22;62581;47.342;7.908;2022-08-21T11:48:46;24.80;99.90
48836;DHT22;62581;47.342;7.908;2022-08-21T11:51:20;24.80;99.90
48836;DHT22;62581;47.342;7.908;2022-08-21T11:53:49;24.90;99.90
48836;DHT22;62581;47.342;7.908;2022-08-21T11:56:20;25.00;99.90
48836;DHT22;62581;47.342;7.908;2022-08-21T11:58:49;25.10;99.90
48836;DHT22;62581;47.342;7.908;2022-08-21T12:01:17;25.30;99.90
48836;DHT22;62581;47.342;7.908;2022-08-21T12:03:51;25.40;99.90
48836;DHT22;62581;47.342;7.908;2022-08-21T12:06:27;25.50;99.90
48836;DHT22;62581;47.342;7.908;2022-08-21T12:08:57;25.70;99.90
48836;DHT22;62581;47.342;7.908;2022-08-21T12:11:24;25.80;99.90
48836;DHT22;62581;47.342;7.908;2022-08-21T12:13:53;25.90;99.90
48836;DHT22;62581;47.342;7.908;2022-08-21T12:16:28;26.10;99.90
48836;DHT22;62581;47.342;7.908;2022-08-21T12:19:02;26.10;99.90
48836;DHT22;62581;47.342;7.908;2022-08-21T12:21:31;26.20;99.90
48836;DHT22;62581;47.342;7.908;2022-08-21T12:24:03;26.30;99.90
48836;DHT22;62581;47.342;7.908;2022-08-21T12:26:31;26.50;99.90
48836;DHT22;62581;47.342;7.908;2022-08-21T12:31:47;27.20;99.90
48836;DHT22;62581;47.342;7.908;2022-08-21T12:34:14;27.90;99.90
48836;DHT22;62581;47.342;7.908;2022-08-21T12:36:43;28.70;99.90
48836;DHT22;62581;47.342;7.908;2022-08-21T12:39:12;29.40;97.50
48836;DHT22;62581;47.342;7.908;2022-08-21T12:41:42;30.20;95.10
48836;DHT22;62581;47.342;7.908;2022-08-21T12:44:10;30.80;93.70
48836;DHT22;62581;47.342;7.908;2022-08-21T12:46:39;31.60;93.20
48836;DHT22;62581;47.342;7.908;2022-08-21T12:49:08;32.30;91.00
48836;DHT22;62581;47.342;7.908;2022-08-21T12:51:46;32.90;88.10
48836;DHT22;62581;47.342;7.908;2022-08-21T12:54:21;33.60;87.60
48836;DHT22;62581;47.342;7.908;2022-08-21T12:56:55;33.80;84.80
48836;DHT22;62581;47.342;7.908;2022-08-21T12:59:22;34.10;83.40
48836;DHT22;62581;47.342;7.908;2022-08-21T13:01:49;34.90;79.70
48836;DHT22;62581;47.342;7.908;2022-08-21T13:04:18;35.70;76.30
48836;DHT22;62581;47.342;7.908;2022-08-21T13:06:48;36.70;72.80
48836;DHT22;62581;47.342;7.908;2022-08-21T13:09:18;37.40;69.10
48836;DHT22;62581;47.342;7.908;2022-08-21T13:11:46;38.20;66.00
48836;DHT22;62581;47.342;7.908;2022-08-21T13:14:14;38.60;63.60
48836;DHT22;62581;47.342;7.908;2022-08-21T13:16:43;39.30;62.40
48836;DHT22;62581;47.342;7.908;2022-08-21T13:19:11;39.90;58.80
48836;DHT22;62581;47.342;7.908;2022-08-21T13:21:44;40.30;57.50
48836;DHT22;62581;47.342;7.908;2022-08-21T13:24:14;40.00;55.90
48836;DHT22;62581;47.342;7.908;2022-08-21T13:26:41;38.90;55.60
48836;DHT22;62581;47.342;7.908;2022-08-21T13:29:09;38.10;57.50
48836;DHT22;62581;47.342;7.908;2022-08-21T13:31:37;37.20;59.50
48836;DHT22;62581;47.342;7.908;2022-08-21T13:34:05;36.50;61.10
48836;DHT22;62581;47.342;7.908;2022-08-21T13:36:35;36.20;62.60
48836;DHT22;62581;47.342;7.908;2022-08-21T13:39:02;37.00;60.40
48836;DHT22;62581;47.342;7.908;2022-08-21T13:41:32;38.00;61.20
48836;DHT22;62581;47.342;7.908;2022-08-21T13:44:00;39.40;59.10
48836;DHT22;62581;47.342;7.908;2022-08-21T13:46:28;40.60;55.50
48836;DHT22;62581;47.342;7.908;2022-08-21T13:48:55;41.40;54.10
48836;DHT22;62581;47.342;7.908;2022-08-21T13:51:22;41.20;52.40
48836;DHT22;62581;47.342;7.908;2022-08-21T13:53:53;41.70;52.70
48836;DHT22;62581;47.342;7.908;2022-08-21T13:56:21;42.00;51.40
48836;DHT22;62581;47.342;7.908;2022-08-21T13:58:49;42.60;51.30
48836;DHT22;62581;47.342;7.908;2022-08-21T14:01:18;43.40;50.90
48836;DHT22;62581;47.342;7.908;2022-08-21T14:03:45;44.30;49.90
48836;DHT22;62581;47.342;7.908;2022-08-21T14:06:14;44.30;48.60
48836;DHT22;62581;47.342;7.908;2022-08-21T14:08:46;43.90;49.20
48836;DHT22;62581;47.342;7.908;2022-08-21T14:11:14;43.80;49.10
48836;DHT22;62581;47.342;7.908;2022-08-21T14:13:42;42.50;49.60
48836;DHT22;62581;47.342;7.908;2022-08-21T14:16:12;41.40;50.80
48836;DHT22;62581;47.342;7.908;2022-08-21T14:18:44;41.80;50.80
48836;DHT22;62581;47.342;7.908;2022-08-21T14:21:11;43.10;49.50
48836;DHT22;62581;47.342;7.908;2022-08-21T14:23:38;44.60;47.70
48836;DHT22;62581;47.342;7.908;2022-08-21T14:26:07;45.70;45.90
48836;DHT22;62581;47.342;7.908;2022-08-21T14:28:37;46.10;44.20
48836;DHT22;62581;47.342;7.908;2022-08-21T14:31:13;46.40;43.60
48836;DHT22;62581;47.342;7.908;2022-08-21T14:33:40;47.00;43.80
48836;DHT22;62581;47.342;7.908;2022-08-21T14:36:07;47.90;43.60
48836;DHT22;62581;47.342;7.908;2022-08-21T14:38:35;48.70;42.70
48836;DHT22;62581;47.342;7.908;2022-08-21T14:41:03;49.40;41.90
48836;DHT22;62581;47.342;7.908;2022-08-21T14:43:30;50.20;41.10
48836;DHT22;62581;47.342;7.908;2022-08-21T14:45:57;50.30;39.60
48836;DHT22;62581;47.342;7.908;2022-08-21T14:48:26;49.90;40.60
48836;DHT22;62581;47.342;7.908;2022-08-21T14:50:52;50.00;40.40
48836;DHT22;62581;47.342;7.908;2022-08-21T14:53:19;49.90;40.00
48836;DHT22;62581;47.342;7.908;2022-08-21T14:55:46;50.20;39.70
48836;DHT22;62581;47.342;7.908;2022-08-21T14:58:31;50.50;40.20
48836;DHT22;62581;47.342;7.908;2022-08-21T15:00:58;51.00;38.80
48836;DHT22;62581;47.342;7.908;2022-08-21T15:03:30;50.80;39.00
48836;DHT22;62581;47.342;7.908;2022-08-21T15:05:57;51.10;39.00
48836;DHT22;62581;47.342;7.908;2022-08-21T15:08:23;51.50;38.00
48836;DHT22;62581;47.342;7.908;2022-08-21T15:10:51;52.00;38.30
48836;DHT22;62581;47.342;7.908;2022-08-21T15:13:18;52.10;36.80
48836;DHT22;62581;47.342;7.908;2022-08-21T15:15:45;52.10;37.20
48836;DHT22;62581;47.342;7.908;2022-08-21T15:18:13;52.10;37.70
48836;DHT22;62581;47.342;7.908;2022-08-21T15:20:41;52.30;37.50
48836;DHT22;62581;47.342;7.908;2022-08-21T15:23:08;52.50;37.20
48836;DHT22;62581;47.342;7.908;2022-08-21T15:25:35;52.20;36.80
48836;DHT22;62581;47.342;7.908;2022-08-21T15:28:03;52.20;37.40
48836;DHT22;62581;47.342;7.908;2022-08-21T15:30:30;52.80;36.70
48836;DHT22;62581;47.342;7.908;2022-08-21T15:32:57;53.20;36.20
48836;DHT22;62581;47.342;7.908;2022-08-21T15:35:24;53.20;35.90
48836;DHT22;62581;47.342;7.908;2022-08-21T15:37:52;52.60;36.00
48836;DHT22;62581;47.342;7.908;2022-08-21T15:40:19;51.80;36.40
48836;DHT22;62581;47.342;7.908;2022-08-21T15:42:46;51.30;36.90